sensor_id;sensor_type;location;lat;lon;timestamp;P1;durP1;ratioP1;P2;durP2;ratioP2
25868;SDS011;13688;53.154;18.136;2023-04-25T00:03:51;4.78;;;2.25;;
25868;SDS011;13688;53.154;18.136;2023-04-25T00:09:15;5.35;;;2.90;;
25868;SDS011;13688;53.154;18.136;2023-04-25T00:14:38;4.12;;;3.42;;
25868;SDS011;13688;53.154;18.136;2023-04-25T00:20:03;4.80;;;3.90;;
25868;SDS011;13688;53.154;18.136;2023-04-25T00:25:28;5.03;;;3.80;;
25868;SDS011;13688;53.154;18.136;2023-04-25T00:30:50;5.47;;;4.05;;
25868;SDS011;13688;53.154;18.136;2023-04-25T00:36:13;6.60;;;4.30;;
25868;SDS011;13688;53.154;18.136;2023-04-25T00:41:36;4.67;;;3.80;;
25868;SDS011;13688;53.154;18.136;2023-04-25T00:46:59;9.08;;;4.33;;
25868;SDS011;13688;53.154;18.136;2023-04-25T00:52:23;6.75;;;4.15;;
25868;SDS011;13688;53.154;18.136;2023-04-25T00:57:48;6.25;;;3.55;;
25868;SDS011;13688;53.154;18.136;2023-04-25T01:03:12;5.20;;;3.25;;
25868;SDS011;13688;53.154;18.136;2023-04-25T01:08:36;5.42;;;3.27;;
25868;SDS011;13688;53.154;18.136;2023-04-25T01:13:59;5.28;;;3.40;;
25868;SDS011;13688;53.154;18.136;2023-04-25T01:19:21;5.37;;;3.47;;
25868;SDS011;13688;53.154;18.136;2023-04-25T01:24:44;4.60;;;3.25;;
25868;SDS011;13688;53.154;18.136;2023-04-25T01:30:08;3.87;;;2.90;;
25868;SDS011;13688;53.154;18.136;2023-04-25T01:35:31;5.90;;;3.25;;
25868;SDS011;13688;53.154;18.136;2023-04-25T01:40:53;4.67;;;3.12;;
25868;SDS011;13688;53.154;18.136;2023-04-25T01:46:16;4.90;;;3.58;;
25868;SDS011;13688;53.154;18.136;2023-04-25T01:51:39;5.12;;;3.30;;
25868;SDS011;13688;53.154;18.136;2023-04-25T01:57:01;6.40;;;3.58;;
25868;SDS011;13688;53.154;18.136;2023-04-25T02:02:24;6.10;;;3.42;;
25868;SDS011;13688;53.154;18.136;2023-04-25T02:07:46;4.55;;;3.35;;
25868;SDS011;13688;53.154;18.136;2023-04-25T02:13:09;5.35;;;3.47;;
25868;SDS011;13688;53.154;18.136;2023-04-25T02:18:31;3.75;;;3.08;;
25868;SDS011;13688;53.154;18.136;2023-04-25T02:23:56;6.58;;;3.45;;
25868;SDS011;13688;53.154;18.136;2023-04-25T02:29:19;6.25;;;3.80;;
25868;SDS011;13688;53.154;18.136;2023-04-25T02:34:41;7.03;;;3.70;;
25868;SDS011;13688;53.154;18.136;2023-04-25T02:40:05;4.30;;;3.15;;
25868;SDS011;13688;53.154;18.136;2023-04-25T02:45:28;4.65;;;3.30;;
25868;SDS011;13688;53.154;18.136;2023-04-25T02:50:50;4.37;;;3.17;;
25868;SDS011;13688;53.154;18.136;2023-04-25T02:56:12;3.37;;;2.80;;
25868;SDS011;13688;53.154;18.136;2023-04-25T03:01:35;4.05;;;2.70;;
25868;SDS011;13688;53.154;18.136;2023-04-25T03:06:57;4.25;;;2.37;;
25868;SDS011;13688;53.154;18.136;2023-04-25T03:12:19;3.40;;;2.58;;
25868;SDS011;13688;53.154;18.136;2023-04-25T03:17:41;3.55;;;2.47;;
25868;SDS011;13688;53.154;18.136;2023-04-25T03:23:04;5.95;;;2.58;;
25868;SDS011;13688;53.154;18.136;2023-04-25T03:28:27;2.72;;;2.00;;
25868;SDS011;13688;53.154;18.136;2023-04-25T03:33:49;3.20;;;2.05;;
25868;SDS011;13688;53.154;18.136;2023-04-25T03:39:12;3.37;;;2.12;;
25868;SDS011;13688;53.154;18.136;2023-04-25T03:44:34;5.78;;;2.10;;
25868;SDS011;13688;53.154;18.136;2023-04-25T03:49:56;3.95;;;1.90;;
25868;SDS011;13688;53.154;18.136;2023-04-25T03:55:19;6.78;;;2.00;;
25868;SDS011;13688;53.154;18.136;2023-04-25T04:00:43;2.87;;;1.82;;
25868;SDS011;13688;53.154;18.136;2023-04-25T04:06:17;4.97;;;1.93;;
25868;SDS011;13688;53.154;18.136;2023-04-25T04:11:39;2.13;;;1.70;;
25868;SDS011;13688;53.154;18.136;2023-04-25T04:17:02;4.77;;;1.77;;
25868;SDS011;13688;53.154;18.136;2023-04-25T04:22:25;1.70;;;1.53;;
25868;SDS011;13688;53.154;18.136;2023-04-25T04:27:47;2.43;;;1.40;;
25868;SDS011;13688;53.154;18.136;2023-04-25T04:33:10;2.27;;;1.57;;
25868;SDS011;13688;53.154;18.136;2023-04-25T04:38:34;4.30;;;2.10;;
25868;SDS011;13688;53.154;18.136;2023-04-25T04:43:57;4.07;;;1.70;;
25868;SDS011;13688;53.154;18.136;2023-04-25T04:49:20;3.50;;;1.50;;
25868;SDS011;13688;53.154;18.136;2023-04-25T04:54:43;2.53;;;1.50;;
25868;SDS011;13688;53.154;18.136;2023-04-25T05:00:05;4.50;;;1.62;;
25868;SDS011;13688;53.154;18.136;2023-04-25T05:05:30;2.52;;;1.30;;
25868;SDS011;13688;53.154;18.136;2023-04-25T05:10:52;2.00;;;1.30;;
25868;SDS011;13688;53.154;18.136;2023-04-25T05:16:15;2.30;;;1.70;;
25868;SDS011;13688;53.154;18.136;2023-04-25T05:21:38;2.25;;;1.70;;
25868;SDS011;13688;53.154;18.136;2023-04-25T05:27:01;2.08;;;1.42;;
25868;SDS011;13688;53.154;18.136;2023-04-25T05:32:23;3.27;;;1.47;;
25868;SDS011;13688;53.154;18.136;2023-04-25T05:37:45;7.63;;;1.80;;
25868;SDS011;13688;53.154;18.136;2023-04-25T05:43:08;3.58;;;1.75;;
25868;SDS011;13688;53.154;18.136;2023-04-25T05:48:30;4.47;;;1.77;;
25868;SDS011;13688;53.154;18.136;2023-04-25T05:53:55;5.53;;;2.10;;
25868;SDS011;13688;53.154;18.136;2023-04-25T05:59:18;2.52;;;1.90;;
25868;SDS011;13688;53.154;18.136;2023-04-25T06:04:40;3.45;;;2.30;;
25868;SDS011;13688;53.154;18.136;2023-04-25T06:10:06;2.22;;;2.00;;
25868;SDS011;13688;53.154;18.136;2023-04-25T06:15:29;2.75;;;1.90;;
25868;SDS011;13688;53.154;18.136;2023-04-25T06:20:52;5.72;;;2.52;;
25868;SDS011;13688;53.154;18.136;2023-04-25T06:26:14;5.33;;;2.20;;
25868;SDS011;13688;53.154;18.136;2023-04-25T06:31:36;3.10;;;2.60;;
25868;SDS011;13688;53.154;18.136;2023-04-25T06:36:58;3.30;;;2.05;;
25868;SDS011;13688;53.154;18.136;2023-04-25T06:42:21;5.23;;;2.07;;
25868;SDS011;13688;53.154;18.136;2023-04-25T06:47:43;7.07;;;2.63;;
25868;SDS011;13688;53.154;18.136;2023-04-25T06:53:05;6.25;;;2.87;;
25868;SDS011;13688;53.154;18.136;2023-04-25T06:58:28;5.47;;;2.70;;
25868;SDS011;13688;53.154;18.136;2023-04-25T07:03:51;13.35;;;3.20;;
25868;SDS011;13688;53.154;18.136;2023-04-25T07:09:13;6.58;;;2.70;;
25868;SDS011;13688;53.154;18.136;2023-04-25T07:14:37;3.17;;;2.10;;
25868;SDS011;13688;53.154;18.136;2023-04-25T07:20:01;13.55;;;3.45;;
25868;SDS011;13688;53.154;18.136;2023-04-25T07:25:24;15.10;;;3.57;;
25868;SDS011;13688;53.154;18.136;2023-04-25T07:30:47;2.73;;;2.20;;
25868;SDS011;13688;53.154;18.136;2023-04-25T07:36:10;81.50;;;9.20;;
25868;SDS011;13688;53.154;18.136;2023-04-25T07:41:34;9.00;;;3.13;;
25868;SDS011;13688;53.154;18.136;2023-04-25T07:46:57;3.60;;;2.20;;
25868;SDS011;13688;53.154;18.136;2023-04-25T07:52:32;4.23;;;2.33;;
25868;SDS011;13688;53.154;18.136;2023-04-25T07:57:54;4.90;;;2.10;;
25868;SDS011;13688;53.154;18.136;2023-04-25T08:03:18;3.13;;;1.70;;
25868;SDS011;13688;53.154;18.136;2023-04-25T08:08:41;2.43;;;1.77;;
25868;SDS011;13688;53.154;18.136;2023-04-25T08:14:03;3.57;;;1.80;;
25868;SDS011;13688;53.154;18.136;2023-04-25T08:19:25;2.67;;;2.20;;
25868;SDS011;13688;53.154;18.136;2023-04-25T08:24:48;5.37;;;2.30;;
25868;SDS011;13688;53.154;18.136;2023-04-25T08:30:10;9.37;;;3.27;;
25868;SDS011;13688;53.154;18.136;2023-04-25T08:35:33;7.37;;;2.90;;
25868;SDS011;13688;53.154;18.136;2023-04-25T08:40:55;24.20;;;4.73;;
25868;SDS011;13688;53.154;18.136;2023-04-25T08:46:20;4.63;;;2.40;;
25868;SDS011;13688;53.154;18.136;2023-04-25T08:51:45;5.97;;;2.58;;
25868;SDS011;13688;53.154;18.136;2023-04-25T08:57:14;43.83;;;6.97;;
25868;SDS011;13688;53.154;18.136;2023-04-25T09:02:37;9.27;;;2.90;;
25868;SDS011;13688;53.154;18.136;2023-04-25T09:08:01;4.47;;;2.63;;
25868;SDS011;13688;53.154;18.136;2023-04-25T09:13:25;7.57;;;3.20;;
25868;SDS011;13688;53.154;18.136;2023-04-25T09:18:47;10.38;;;3.45;;
25868;SDS011;13688;53.154;18.136;2023-04-25T09:24:09;6.83;;;2.90;;
25868;SDS011;13688;53.154;18.136;2023-04-25T09:29:43;50.77;;;6.57;;
25868;SDS011;13688;53.154;18.136;2023-04-25T09:35:08;5.73;;;3.03;;
25868;SDS011;13688;53.154;18.136;2023-04-25T09:40:34;6.47;;;2.55;;
25868;SDS011;13688;53.154;18.136;2023-04-25T09:45:59;7.73;;;3.10;;
25868;SDS011;13688;53.154;18.136;2023-04-25T09:51:25;5.13;;;2.30;;
25868;SDS011;13688;53.154;18.136;2023-04-25T09:56:49;6.67;;;2.92;;
25868;SDS011;13688;53.154;18.136;2023-04-25T10:02:23;6.60;;;2.85;;
25868;SDS011;13688;53.154;18.136;2023-04-25T10:07:47;4.12;;;2.17;;
25868;SDS011;13688;53.154;18.136;2023-04-25T10:13:12;4.75;;;1.90;;
25868;SDS011;13688;53.154;18.136;2023-04-25T10:18:36;4.47;;;2.20;;
25868;SDS011;13688;53.154;18.136;2023-04-25T10:23:59;5.12;;;2.08;;
25868;SDS011;13688;53.154;18.136;2023-04-25T10:29:23;3.92;;;2.20;;
25868;SDS011;13688;53.154;18.136;2023-04-25T10:34:49;5.10;;;2.50;;
25868;SDS011;13688;53.154;18.136;2023-04-25T10:40:22;10.90;;;3.00;;
25868;SDS011;13688;53.154;18.136;2023-04-25T10:45:53;4.10;;;2.40;;
25868;SDS011;13688;53.154;18.136;2023-04-25T10:51:26;4.47;;;2.47;;
25868;SDS011;13688;53.154;18.136;2023-04-25T10:56:52;5.12;;;2.33;;
25868;SDS011;13688;53.154;18.136;2023-04-25T11:02:14;3.57;;;2.20;;
25868;SDS011;13688;53.154;18.136;2023-04-25T11:08:01;2.85;;;2.20;;
25868;SDS011;13688;53.154;18.136;2023-04-25T11:13:09;4.08;;;2.17;;
25868;SDS011;13688;53.154;18.136;2023-04-25T11:18:32;5.22;;;2.40;;
25868;SDS011;13688;53.154;18.136;2023-04-25T11:24:00;4.53;;;2.60;;
25868;SDS011;13688;53.154;18.136;2023-04-25T11:29:26;5.12;;;2.52;;
25868;SDS011;13688;53.154;18.136;2023-04-25T11:34:50;4.33;;;2.62;;
25868;SDS011;13688;53.154;18.136;2023-04-25T11:40:14;7.47;;;2.87;;
25868;SDS011;13688;53.154;18.136;2023-04-25T11:45:37;3.15;;;2.30;;
25868;SDS011;13688;53.154;18.136;2023-04-25T11:51:02;4.25;;;2.50;;
25868;SDS011;13688;53.154;18.136;2023-04-25T11:56:24;3.80;;;2.70;;
25868;SDS011;13688;53.154;18.136;2023-04-25T12:01:49;5.40;;;2.30;;
25868;SDS011;13688;53.154;18.136;2023-04-25T12:07:12;3.92;;;2.65;;
25868;SDS011;13688;53.154;18.136;2023-04-25T12:12:37;5.87;;;2.52;;
25868;SDS011;13688;53.154;18.136;2023-04-25T12:18:02;4.17;;;2.65;;
25868;SDS011;13688;53.154;18.136;2023-04-25T12:23:25;3.98;;;2.45;;
25868;SDS011;13688;53.154;18.136;2023-04-25T12:28:49;4.50;;;2.30;;
25868;SDS011;13688;53.154;18.136;2023-04-25T12:34:12;4.25;;;1.87;;
25868;SDS011;13688;53.154;18.136;2023-04-25T12:39:35;5.22;;;2.10;;
25868;SDS011;13688;53.154;18.136;2023-04-25T12:44:58;4.42;;;2.10;;
25868;SDS011;13688;53.154;18.136;2023-04-25T12:50:22;3.80;;;2.10;;
25868;SDS011;13688;53.154;18.136;2023-04-25T12:55:46;4.37;;;2.27;;
25868;SDS011;13688;53.154;18.136;2023-04-25T13:01:09;6.10;;;2.40;;
25868;SDS011;13688;53.154;18.136;2023-04-25T13:06:31;4.00;;;2.20;;
25868;SDS011;13688;53.154;18.136;2023-04-25T13:11:54;5.27;;;2.40;;
25868;SDS011;13688;53.154;18.136;2023-04-25T13:17:17;2.67;;;1.77;;
25868;SDS011;13688;53.154;18.136;2023-04-25T13:22:39;3.93;;;2.00;;
25868;SDS011;13688;53.154;18.136;2023-04-25T13:28:04;4.58;;;2.45;;
25868;SDS011;13688;53.154;18.136;2023-04-25T13:33:27;4.72;;;2.60;;
25868;SDS011;13688;53.154;18.136;2023-04-25T13:38:49;3.70;;;2.30;;
25868;SDS011;13688;53.154;18.136;2023-04-25T13:44:12;1.90;;;1.10;;
25868;SDS011;13688;53.154;18.136;2023-04-25T13:49:34;1.80;;;1.22;;
25868;SDS011;13688;53.154;18.136;2023-04-25T13:54:58;3.50;;;1.52;;
25868;SDS011;13688;53.154;18.136;2023-04-25T14:00:21;4.25;;;2.22;;
25868;SDS011;13688;53.154;18.136;2023-04-25T14:05:46;6.70;;;2.93;;
25868;SDS011;13688;53.154;18.136;2023-04-25T14:11:10;4.23;;;2.60;;
25868;SDS011;13688;53.154;18.136;2023-04-25T14:16:33;4.42;;;3.25;;
25868;SDS011;13688;53.154;18.136;2023-04-25T14:21:57;5.95;;;3.22;;
25868;SDS011;13688;53.154;18.136;2023-04-25T14:27:19;7.05;;;2.90;;
25868;SDS011;13688;53.154;18.136;2023-04-25T14:32:42;6.37;;;2.90;;
25868;SDS011;13688;53.154;18.136;2023-04-25T14:38:05;4.65;;;1.90;;
25868;SDS011;13688;53.154;18.136;2023-04-25T14:43:29;2.25;;;1.20;;
25868;SDS011;13688;53.154;18.136;2023-04-25T14:48:52;3.25;;;1.05;;
25868;SDS011;13688;53.154;18.136;2023-04-25T14:54:16;2.10;;;1.10;;
25868;SDS011;13688;53.154;18.136;2023-04-25T14:59:40;5.42;;;1.20;;
25868;SDS011;13688;53.154;18.136;2023-04-25T15:05:03;4.53;;;1.20;;
25868;SDS011;13688;53.154;18.136;2023-04-25T15:10:26;2.35;;;1.30;;
25868;SDS011;13688;53.154;18.136;2023-04-25T15:15:49;2.25;;;1.67;;
25868;SDS011;13688;53.154;18.136;2023-04-25T15:21:12;3.93;;;1.80;;
25868;SDS011;13688;53.154;18.136;2023-04-25T15:26:35;3.80;;;2.02;;
25868;SDS011;13688;53.154;18.136;2023-04-25T15:31:57;4.17;;;2.40;;
25868;SDS011;13688;53.154;18.136;2023-04-25T15:37:21;4.20;;;2.03;;
25868;SDS011;13688;53.154;18.136;2023-04-25T15:42:44;5.60;;;2.77;;
25868;SDS011;13688;53.154;18.136;2023-04-25T15:48:07;3.67;;;2.20;;
25868;SDS011;13688;53.154;18.136;2023-04-25T15:53:30;3.00;;;1.93;;
25868;SDS011;13688;53.154;18.136;2023-04-25T15:58:54;4.33;;;2.20;;
25868;SDS011;13688;53.154;18.136;2023-04-25T16:04:17;4.33;;;1.90;;
25868;SDS011;13688;53.154;18.136;2023-04-25T16:09:41;5.30;;;2.10;;
25868;SDS011;13688;53.154;18.136;2023-04-25T16:15:05;7.92;;;2.33;;
25868;SDS011;13688;53.154;18.136;2023-04-25T16:20:27;6.42;;;2.12;;
25868;SDS011;13688;53.154;18.136;2023-04-25T16:25:50;7.43;;;2.43;;
25868;SDS011;13688;53.154;18.136;2023-04-25T16:31:13;8.00;;;2.60;;
25868;SDS011;13688;53.154;18.136;2023-04-25T16:36:36;11.45;;;3.62;;
25868;SDS011;13688;53.154;18.136;2023-04-25T16:41:58;13.23;;;3.30;;
25868;SDS011;13688;53.154;18.136;2023-04-25T16:47:21;15.28;;;3.55;;
25868;SDS011;13688;53.154;18.136;2023-04-25T16:52:44;5.47;;;2.83;;
25868;SDS011;13688;53.154;18.136;2023-04-25T16:58:07;7.12;;;3.00;;
25868;SDS011;13688;53.154;18.136;2023-04-25T17:03:31;11.22;;;3.10;;
25868;SDS011;13688;53.154;18.136;2023-04-25T17:08:55;8.70;;;3.30;;
25868;SDS011;13688;53.154;18.136;2023-04-25T17:14:18;10.68;;;3.10;;
25868;SDS011;13688;53.154;18.136;2023-04-25T17:19:42;12.05;;;3.80;;
25868;SDS011;13688;53.154;18.136;2023-04-25T17:25:07;9.20;;;3.50;;
25868;SDS011;13688;53.154;18.136;2023-04-25T17:30:30;11.60;;;4.55;;
25868;SDS011;13688;53.154;18.136;2023-04-25T17:35:53;9.35;;;4.03;;
25868;SDS011;13688;53.154;18.136;2023-04-25T17:41:19;11.93;;;4.15;;
25868;SDS011;13688;53.154;18.136;2023-04-25T17:46:43;12.10;;;4.17;;
25868;SDS011;13688;53.154;18.136;2023-04-25T17:52:05;8.15;;;3.40;;
25868;SDS011;13688;53.154;18.136;2023-04-25T17:57:28;12.60;;;4.12;;
25868;SDS011;13688;53.154;18.136;2023-04-25T18:02:50;9.83;;;3.65;;
25868;SDS011;13688;53.154;18.136;2023-04-25T18:08:14;10.43;;;3.72;;
25868;SDS011;13688;53.154;18.136;2023-04-25T18:13:36;12.20;;;4.08;;
25868;SDS011;13688;53.154;18.136;2023-04-25T18:18:58;11.68;;;4.00;;
25868;SDS011;13688;53.154;18.136;2023-04-25T18:24:26;11.73;;;4.30;;
25868;SDS011;13688;53.154;18.136;2023-04-25T18:29:49;12.90;;;3.87;;
25868;SDS011;13688;53.154;18.136;2023-04-25T18:35:12;12.88;;;4.22;;
25868;SDS011;13688;53.154;18.136;2023-04-25T18:40:34;12.47;;;4.40;;
25868;SDS011;13688;53.154;18.136;2023-04-25T18:45:58;11.28;;;4.42;;
25868;SDS011;13688;53.154;18.136;2023-04-25T18:51:30;37.48;;;24.05;;
25868;SDS011;13688;53.154;18.136;2023-04-25T18:56:51;17.92;;;5.17;;
25868;SDS011;13688;53.154;18.136;2023-04-25T19:02:15;18.05;;;6.83;;
25868;SDS011;13688;53.154;18.136;2023-04-25T19:07:40;13.43;;;6.15;;
25868;SDS011;13688;53.154;18.136;2023-04-25T19:13:03;18.73;;;6.33;;
25868;SDS011;13688;53.154;18.136;2023-04-25T19:18:26;12.68;;;5.65;;
25868;SDS011;13688;53.154;18.136;2023-04-25T19:23:48;14.68;;;5.30;;
25868;SDS011;13688;53.154;18.136;2023-04-25T19:29:12;12.10;;;4.47;;
25868;SDS011;13688;53.154;18.136;2023-04-25T19:34:36;15.40;;;4.50;;
25868;SDS011;13688;53.154;18.136;2023-04-25T19:39:59;24.70;;;12.13;;
25868;SDS011;13688;53.154;18.136;2023-04-25T19:45:25;17.10;;;5.75;;
25868;SDS011;13688;53.154;18.136;2023-04-25T19:50:49;11.40;;;4.58;;
25868;SDS011;13688;53.154;18.136;2023-04-25T19:56:11;13.75;;;4.40;;
25868;SDS011;13688;53.154;18.136;2023-04-25T20:01:35;14.68;;;3.98;;
25868;SDS011;13688;53.154;18.136;2023-04-25T20:06:58;10.35;;;3.72;;
25868;SDS011;13688;53.154;18.136;2023-04-25T20:12:23;8.43;;;3.37;;
25868;SDS011;13688;53.154;18.136;2023-04-25T20:17:45;10.65;;;4.15;;
25868;SDS011;13688;53.154;18.136;2023-04-25T20:23:07;13.88;;;4.00;;
25868;SDS011;13688;53.154;18.136;2023-04-25T20:28:30;12.47;;;3.85;;
25868;SDS011;13688;53.154;18.136;2023-04-25T20:33:53;13.95;;;4.10;;
25868;SDS011;13688;53.154;18.136;2023-04-25T20:39:16;14.73;;;4.12;;
25868;SDS011;13688;53.154;18.136;2023-04-25T20:44:38;14.35;;;4.85;;
25868;SDS011;13688;53.154;18.136;2023-04-25T20:50:01;10.60;;;4.20;;
25868;SDS011;13688;53.154;18.136;2023-04-25T20:55:23;15.03;;;3.98;;
25868;SDS011;13688;53.154;18.136;2023-04-25T21:00:46;14.23;;;4.08;;
25868;SDS011;13688;53.154;18.136;2023-04-25T21:06:09;14.03;;;4.00;;
25868;SDS011;13688;53.154;18.136;2023-04-25T21:11:31;11.95;;;4.33;;
25868;SDS011;13688;53.154;18.136;2023-04-25T21:16:54;16.25;;;4.15;;
25868;SDS011;13688;53.154;18.136;2023-04-25T21:22:17;15.55;;;3.72;;
25868;SDS011;13688;53.154;18.136;2023-04-25T21:27:39;9.68;;;3.65;;
25868;SDS011;13688;53.154;18.136;2023-04-25T21:33:02;8.50;;;4.10;;
25868;SDS011;13688;53.154;18.136;2023-04-25T21:38:25;16.77;;;5.08;;
25868;SDS011;13688;53.154;18.136;2023-04-25T21:43:47;19.50;;;5.47;;
25868;SDS011;13688;53.154;18.136;2023-04-25T21:49:09;17.30;;;6.17;;
25868;SDS011;13688;53.154;18.136;2023-04-25T21:54:31;12.75;;;5.80;;
25868;SDS011;13688;53.154;18.136;2023-04-25T21:59:54;22.32;;;7.15;;
25868;SDS011;13688;53.154;18.136;2023-04-25T22:05:24;21.48;;;7.17;;
25868;SDS011;13688;53.154;18.136;2023-04-25T22:10:46;23.62;;;8.35;;
25868;SDS011;13688;53.154;18.136;2023-04-25T22:16:09;21.12;;;8.20;;
25868;SDS011;13688;53.154;18.136;2023-04-25T22:21:32;23.65;;;8.45;;
25868;SDS011;13688;53.154;18.136;2023-04-25T22:26:55;16.07;;;7.10;;
25868;SDS011;13688;53.154;18.136;2023-04-25T22:32:17;21.25;;;8.18;;
25868;SDS011;13688;53.154;18.136;2023-04-25T22:37:40;22.70;;;8.58;;
25868;SDS011;13688;53.154;18.136;2023-04-25T22:43:03;29.92;;;10.35;;
25868;SDS011;13688;53.154;18.136;2023-04-25T22:48:25;29.50;;;11.60;;
25868;SDS011;13688;53.154;18.136;2023-04-25T22:53:48;32.40;;;9.93;;
25868;SDS011;13688;53.154;18.136;2023-04-25T22:59:10;27.98;;;10.40;;
25868;SDS011;13688;53.154;18.136;2023-04-25T23:04:33;28.42;;;9.28;;
25868;SDS011;13688;53.154;18.136;2023-04-25T23:09:56;22.22;;;8.40;;
25868;SDS011;13688;53.154;18.136;2023-04-25T23:15:19;21.07;;;7.58;;
25868;SDS011;13688;53.154;18.136;2023-04-25T23:20:42;23.00;;;8.08;;
25868;SDS011;13688;53.154;18.136;2023-04-25T23:26:09;19.55;;;6.40;;
25868;SDS011;13688;53.154;18.136;2023-04-25T23:31:29;21.02;;;7.08;;
25868;SDS011;13688;53.154;18.136;2023-04-25T23:36:51;20.65;;;6.50;;
25868;SDS011;13688;53.154;18.136;2023-04-25T23:42:15;19.45;;;6.95;;
25868;SDS011;13688;53.154;18.136;2023-04-25T23:47:37;23.07;;;6.42;;
25868;SDS011;13688;53.154;18.136;2023-04-25T23:52:59;22.30;;;6.85;;
25868;SDS011;13688;53.154;18.136;2023-04-25T23:58:22;20.65;;;6.50;;
